sensor_id;sensor_type;location;lat;lon;timestamp;temperature;humidity
23114;DHT22;11726;50.122;8.832;2022-12-18T00:01:02;-6.80;99.90
23114;DHT22;11726;50.122;8.832;2022-12-18T00:03:32;-6.90;99.90
23114;DHT22;11726;50.122;8.832;2022-12-18T00:05:59;-6.90;99.90
23114;DHT22;11726;50.122;8.832;2022-12-18T00:08:26;-6.90;99.90
23114;DHT22;11726;50.122;8.832;2022-12-18T00:10:52;-6.90;99.90
23114;DHT22;11726;50.122;8.832;2022-12-18T00:13:25;-6.90;99.90
23114;DHT22;11726;50.122;8.832;2022-12-18T00:15:53;-7.00;99.90
23114;DHT22;11726;50.122;8.832;2022-12-18T00:18:22;-7.00;99.90
23114;DHT22;11726;50.122;8.832;2022-12-18T00:20:48;-6.90;99.90
23114;DHT22;11726;50.122;8.832;2022-12-18T00:23:15;-7.00;99.90
23114;DHT22;11726;50.122;8.832;2022-12-18T00:25:41;-7.00;99.90
23114;DHT22;11726;50.122;8.832;2022-12-18T00:28:08;-7.00;99.90
23114;DHT22;11726;50.122;8.832;2022-12-18T00:30:34;-7.00;99.90
23114;DHT22;11726;50.122;8.832;2022-12-18T00:33:00;-6.90;99.90
23114;DHT22;11726;50.122;8.832;2022-12-18T00:35:27;-6.90;99.90
23114;DHT22;11726;50.122;8.832;2022-12-18T00:37:54;-6.90;99.90
23114;DHT22;11726;50.122;8.832;2022-12-18T00:40:20;-6.90;99.90
23114;DHT22;11726;50.122;8.832;2022-12-18T00:42:47;-7.00;99.90
23114;DHT22;11726;50.122;8.832;2022-12-18T00:45:26;-7.00;99.90
23114;DHT22;11726;50.122;8.832;2022-12-18T00:47:53;-7.00;99.90
23114;DHT22;11726;50.122;8.832;2022-12-18T00:50:20;-7.00;99.90
23114;DHT22;11726;50.122;8.832;2022-12-18T00:52:46;-6.90;99.90
23114;DHT22;11726;50.122;8.832;2022-12-18T00:55:13;-6.90;99.90
23114;DHT22;11726;50.122;8.832;2022-12-18T00:57:40;-6.80;99.90
23114;DHT22;11726;50.122;8.832;2022-12-18T01:00:07;-6.80;99.90
23114;DHT22;11726;50.122;8.832;2022-12-18T01:02:34;-6.90;99.90
23114;DHT22;11726;50.122;8.832;2022-12-18T01:05:01;-7.00;99.90
23114;DHT22;11726;50.122;8.832;2022-12-18T01:07:28;-7.00;99.90
23114;DHT22;11726;50.122;8.832;2022-12-18T01:09:54;-7.00;99.90
23114;DHT22;11726;50.122;8.832;2022-12-18T01:12:21;-7.00;99.90
23114;DHT22;11726;50.122;8.832;2022-12-18T01:14:47;-7.10;99.90
23114;DHT22;11726;50.122;8.832;2022-12-18T01:17:14;-7.00;99.90
23114;DHT22;11726;50.122;8.832;2022-12-18T01:19:40;-7.00;99.90
23114;DHT22;11726;50.122;8.832;2022-12-18T01:22:08;-7.10;99.90
23114;DHT22;11726;50.122;8.832;2022-12-18T01:24:34;-7.10;99.90
23114;DHT22;11726;50.122;8.832;2022-12-18T01:27:01;-7.10;99.90
23114;DHT22;11726;50.122;8.832;2022-12-18T01:29:27;-7.10;99.90
23114;DHT22;11726;50.122;8.832;2022-12-18T01:31:57;-7.20;99.90
23114;DHT22;11726;50.122;8.832;2022-12-18T01:34:23;-7.20;99.90
23114;DHT22;11726;50.122;8.832;2022-12-18T01:36:50;-7.20;99.90
23114;DHT22;11726;50.122;8.832;2022-12-18T01:39:19;-7.20;99.90
23114;DHT22;11726;50.122;8.832;2022-12-18T01:41:46;-7.00;99.90
23114;DHT22;11726;50.122;8.832;2022-12-18T01:47:30;-7.10;99.90
23114;DHT22;11726;50.122;8.832;2022-12-18T01:49:58;-7.20;99.90
23114;DHT22;11726;50.122;8.832;2022-12-18T01:52:26;-7.20;99.90
23114;DHT22;11726;50.122;8.832;2022-12-18T01:54:54;-7.20;99.90
23114;DHT22;11726;50.122;8.832;2022-12-18T01:57:22;-7.20;99.90
23114;DHT22;11726;50.122;8.832;2022-12-18T01:59:52;-7.10;99.90
23114;DHT22;11726;50.122;8.832;2022-12-18T02:02:19;-7.20;99.90
23114;DHT22;11726;50.122;8.832;2022-12-18T02:04:47;-7.10;99.90
23114;DHT22;11726;50.122;8.832;2022-12-18T02:07:27;-7.10;99.90
23114;DHT22;11726;50.122;8.832;2022-12-18T02:09:59;-7.10;99.90
23114;DHT22;11726;50.122;8.832;2022-12-18T02:12:28;-7.10;99.90
23114;DHT22;11726;50.122;8.832;2022-12-18T02:17:39;-7.20;99.90
23114;DHT22;11726;50.122;8.832;2022-12-18T02:20:17;-7.20;99.90
23114;DHT22;11726;50.122;8.832;2022-12-18T02:23:01;-7.20;99.90
23114;DHT22;11726;50.122;8.832;2022-12-18T02:25:38;-7.30;99.90
23114;DHT22;11726;50.122;8.832;2022-12-18T02:28:07;-7.40;99.90
23114;DHT22;11726;50.122;8.832;2022-12-18T02:30:34;-7.40;99.90
23114;DHT22;11726;50.122;8.832;2022-12-18T02:33:02;-7.50;99.90
23114;DHT22;11726;50.122;8.832;2022-12-18T02:35:31;-7.50;99.90
23114;DHT22;11726;50.122;8.832;2022-12-18T02:37:59;-7.50;99.90
23114;DHT22;11726;50.122;8.832;2022-12-18T02:40:26;-7.60;99.90
23114;DHT22;11726;50.122;8.832;2022-12-18T02:42:54;-7.60;99.90
23114;DHT22;11726;50.122;8.832;2022-12-18T02:45:20;-7.60;99.90
23114;DHT22;11726;50.122;8.832;2022-12-18T02:47:47;-7.70;99.90
23114;DHT22;11726;50.122;8.832;2022-12-18T02:57:54;-8.10;99.90
23114;DHT22;11726;50.122;8.832;2022-12-18T03:00:26;-8.10;99.90
23114;DHT22;11726;50.122;8.832;2022-12-18T03:05:45;-7.90;99.90
23114;DHT22;11726;50.122;8.832;2022-12-18T03:08:24;-7.90;99.90
23114;DHT22;11726;50.122;8.832;2022-12-18T03:11:02;-7.80;99.90
23114;DHT22;11726;50.122;8.832;2022-12-18T03:15:59;-7.70;99.90
23114;DHT22;11726;50.122;8.832;2022-12-18T03:18:29;-7.90;99.90
23114;DHT22;11726;50.122;8.832;2022-12-18T03:20:57;-7.90;99.90
23114;DHT22;11726;50.122;8.832;2022-12-18T03:23:27;-7.90;99.90
23114;DHT22;11726;50.122;8.832;2022-12-18T03:25:56;-7.80;99.90
23114;DHT22;11726;50.122;8.832;2022-12-18T03:28:30;-7.80;99.90
23114;DHT22;11726;50.122;8.832;2022-12-18T03:30:58;-7.80;99.90
23114;DHT22;11726;50.122;8.832;2022-12-18T03:33:31;-7.80;99.90
23114;DHT22;11726;50.122;8.832;2022-12-18T03:36:01;-7.80;99.90
23114;DHT22;11726;50.122;8.832;2022-12-18T03:38:27;-7.70;99.90
23114;DHT22;11726;50.122;8.832;2022-12-18T03:43:39;-7.90;99.90
23114;DHT22;11726;50.122;8.832;2022-12-18T03:46:17;-8.00;99.90
23114;DHT22;11726;50.122;8.832;2022-12-18T03:48:48;-8.10;99.90
23114;DHT22;11726;50.122;8.832;2022-12-18T03:51:24;-8.10;99.90
23114;DHT22;11726;50.122;8.832;2022-12-18T03:53:58;-8.10;99.90
23114;DHT22;11726;50.122;8.832;2022-12-18T03:56:30;-8.00;99.90
23114;DHT22;11726;50.122;8.832;2022-12-18T03:59:00;-8.00;99.90
23114;DHT22;11726;50.122;8.832;2022-12-18T04:01:31;-8.00;99.90
23114;DHT22;11726;50.122;8.832;2022-12-18T04:03:59;-8.20;99.90
23114;DHT22;11726;50.122;8.832;2022-12-18T04:06:26;-8.10;99.90
23114;DHT22;11726;50.122;8.832;2022-12-18T04:08:53;-8.10;99.90
23114;DHT22;11726;50.122;8.832;2022-12-18T04:11:20;-8.20;99.90
23114;DHT22;11726;50.122;8.832;2022-12-18T04:13:46;-8.10;99.90
23114;DHT22;11726;50.122;8.832;2022-12-18T04:16:13;-8.20;99.90
23114;DHT22;11726;50.122;8.832;2022-12-18T04:18:39;-8.20;99.90
23114;DHT22;11726;50.122;8.832;2022-12-18T04:21:06;-8.10;99.90
23114;DHT22;11726;50.122;8.832;2022-12-18T04:23:32;-8.00;99.90
23114;DHT22;11726;50.122;8.832;2022-12-18T04:25:59;-8.00;99.90
23114;DHT22;11726;50.122;8.832;2022-12-18T04:28:25;-8.10;99.90
23114;DHT22;11726;50.122;8.832;2022-12-18T04:30:52;-8.00;99.90
23114;DHT22;11726;50.122;8.832;2022-12-18T04:33:19;-7.90;99.90
23114;DHT22;11726;50.122;8.832;2022-12-18T04:35:45;-7.90;99.90
23114;DHT22;11726;50.122;8.832;2022-12-18T04:38:12;-7.90;99.90
23114;DHT22;11726;50.122;8.832;2022-12-18T04:40:39;-8.00;99.90
23114;DHT22;11726;50.122;8.832;2022-12-18T04:43:07;-8.00;99.90
23114;DHT22;11726;50.122;8.832;2022-12-18T04:45:33;-8.00;99.90
23114;DHT22;11726;50.122;8.832;2022-12-18T04:48:00;-8.10;99.90
23114;DHT22;11726;50.122;8.832;2022-12-18T04:50:27;-8.10;99.90
23114;DHT22;11726;50.122;8.832;2022-12-18T04:52:54;-8.10;99.90
23114;DHT22;11726;50.122;8.832;2022-12-18T04:55:20;-8.10;99.90
23114;DHT22;11726;50.122;8.832;2022-12-18T04:57:47;-8.10;99.90
23114;DHT22;11726;50.122;8.832;2022-12-18T05:00:13;-8.10;99.90
23114;DHT22;11726;50.122;8.832;2022-12-18T05:02:40;-8.10;99.90
23114;DHT22;11726;50.122;8.832;2022-12-18T05:05:07;-8.10;99.90
23114;DHT22;11726;50.122;8.832;2022-12-18T05:07:34;-8.10;99.90
23114;DHT22;11726;50.122;8.832;2022-12-18T05:10:00;-8.10;99.90
23114;DHT22;11726;50.122;8.832;2022-12-18T05:12:27;-8.10;99.90
23114;DHT22;11726;50.122;8.832;2022-12-18T05:14:53;-8.30;99.90
23114;DHT22;11726;50.122;8.832;2022-12-18T05:17:19;-8.30;99.90
23114;DHT22;11726;50.122;8.832;2022-12-18T05:19:46;-8.20;99.90
23114;DHT22;11726;50.122;8.832;2022-12-18T05:22:12;-8.10;99.90
23114;DHT22;11726;50.122;8.832;2022-12-18T05:24:39;-8.00;99.90
23114;DHT22;11726;50.122;8.832;2022-12-18T05:27:05;-8.10;99.90
23114;DHT22;11726;50.122;8.832;2022-12-18T05:29:32;-8.20;99.90
23114;DHT22;11726;50.122;8.832;2022-12-18T05:31:58;-8.30;99.90
23114;DHT22;11726;50.122;8.832;2022-12-18T05:34:25;-8.40;99.90
23114;DHT22;11726;50.122;8.832;2022-12-18T05:36:51;-8.50;99.90
23114;DHT22;11726;50.122;8.832;2022-12-18T05:39:18;-8.60;99.90
23114;DHT22;11726;50.122;8.832;2022-12-18T05:41:44;-8.60;99.90
23114;DHT22;11726;50.122;8.832;2022-12-18T05:44:12;-8.70;99.90
23114;DHT22;11726;50.122;8.832;2022-12-18T05:46:38;-8.70;99.90
23114;DHT22;11726;50.122;8.832;2022-12-18T05:49:08;-8.70;99.90
23114;DHT22;11726;50.122;8.832;2022-12-18T05:51:35;-8.70;99.90
23114;DHT22;11726;50.122;8.832;2022-12-18T05:54:02;-8.80;99.90
23114;DHT22;11726;50.122;8.832;2022-12-18T05:56:29;-8.90;99.90
23114;DHT22;11726;50.122;8.832;2022-12-18T05:58:55;-9.00;99.90
23114;DHT22;11726;50.122;8.832;2022-12-18T06:01:23;-9.10;99.90
23114;DHT22;11726;50.122;8.832;2022-12-18T06:03:50;-9.00;99.90
23114;DHT22;11726;50.122;8.832;2022-12-18T06:06:18;-8.90;99.90
23114;DHT22;11726;50.122;8.832;2022-12-18T06:08:45;-8.90;99.90
23114;DHT22;11726;50.122;8.832;2022-12-18T06:11:12;-8.80;99.90
23114;DHT22;11726;50.122;8.832;2022-12-18T06:13:39;-8.90;99.90
23114;DHT22;11726;50.122;8.832;2022-12-18T06:16:06;-9.00;99.90
23114;DHT22;11726;50.122;8.832;2022-12-18T06:18:37;-8.90;99.90
23114;DHT22;11726;50.122;8.832;2022-12-18T06:21:04;-8.80;99.90
23114;DHT22;11726;50.122;8.832;2022-12-18T06:23:30;-8.90;99.90
23114;DHT22;11726;50.122;8.832;2022-12-18T06:25:57;-8.90;99.90
23114;DHT22;11726;50.122;8.832;2022-12-18T06:28:23;-9.00;99.90
23114;DHT22;11726;50.122;8.832;2022-12-18T06:30:50;-9.00;99.90
23114;DHT22;11726;50.122;8.832;2022-12-18T06:33:17;-9.00;99.90
23114;DHT22;11726;50.122;8.832;2022-12-18T06:35:43;-8.90;99.90
23114;DHT22;11726;50.122;8.832;2022-12-18T06:38:10;-9.00;99.90
23114;DHT22;11726;50.122;8.832;2022-12-18T06:40:37;-9.00;99.90
23114;DHT22;11726;50.122;8.832;2022-12-18T06:43:04;-9.10;99.90
23114;DHT22;11726;50.122;8.832;2022-12-18T06:45:31;-9.10;99.90
23114;DHT22;11726;50.122;8.832;2022-12-18T06:47:58;-9.20;99.90
23114;DHT22;11726;50.122;8.832;2022-12-18T06:50:24;-9.20;99.90
23114;DHT22;11726;50.122;8.832;2022-12-18T06:52:51;-9.00;99.90
23114;DHT22;11726;50.122;8.832;2022-12-18T06:55:18;-9.10;99.90
23114;DHT22;11726;50.122;8.832;2022-12-18T06:57:44;-9.20;99.90
23114;DHT22;11726;50.122;8.832;2022-12-18T07:00:11;-9.20;99.90
23114;DHT22;11726;50.122;8.832;2022-12-18T07:02:37;-9.40;99.90
23114;DHT22;11726;50.122;8.832;2022-12-18T07:05:04;-9.40;99.90
23114;DHT22;11726;50.122;8.832;2022-12-18T07:07:36;-9.40;99.90
23114;DHT22;11726;50.122;8.832;2022-12-18T07:10:03;-9.50;99.90
23114;DHT22;11726;50.122;8.832;2022-12-18T07:12:30;-9.50;99.90
23114;DHT22;11726;50.122;8.832;2022-12-18T07:14:56;-9.40;99.90
23114;DHT22;11726;50.122;8.832;2022-12-18T07:17:23;-9.30;99.90
23114;DHT22;11726;50.122;8.832;2022-12-18T07:19:49;-9.20;99.90
23114;DHT22;11726;50.122;8.832;2022-12-18T07:22:16;-9.20;99.90
23114;DHT22;11726;50.122;8.832;2022-12-18T07:24:42;-9.30;99.90
23114;DHT22;11726;50.122;8.832;2022-12-18T07:27:09;-9.30;99.90
23114;DHT22;11726;50.122;8.832;2022-12-18T07:29:35;-9.20;99.90
23114;DHT22;11726;50.122;8.832;2022-12-18T07:32:03;-9.30;99.90
23114;DHT22;11726;50.122;8.832;2022-12-18T07:34:30;-9.20;99.90
23114;DHT22;11726;50.122;8.832;2022-12-18T07:36:57;-9.20;99.90
23114;DHT22;11726;50.122;8.832;2022-12-18T07:39:24;-9.10;99.90
23114;DHT22;11726;50.122;8.832;2022-12-18T07:41:50;-9.10;99.90
23114;DHT22;11726;50.122;8.832;2022-12-18T07:44:36;-9.10;99.90
23114;DHT22;11726;50.122;8.832;2022-12-18T07:47:03;-9.10;99.90
23114;DHT22;11726;50.122;8.832;2022-12-18T07:49:37;-9.10;99.90
23114;DHT22;11726;50.122;8.832;2022-12-18T07:52:03;-9.00;99.90
23114;DHT22;11726;50.122;8.832;2022-12-18T07:54:30;-9.00;99.90
23114;DHT22;11726;50.122;8.832;2022-12-18T07:56:56;-9.20;99.90
23114;DHT22;11726;50.122;8.832;2022-12-18T07:59:23;-9.10;99.90
23114;DHT22;11726;50.122;8.832;2022-12-18T08:01:49;-9.10;99.90
23114;DHT22;11726;50.122;8.832;2022-12-18T08:04:16;-9.00;99.90
23114;DHT22;11726;50.122;8.832;2022-12-18T08:06:43;-8.80;99.90
23114;DHT22;11726;50.122;8.832;2022-12-18T08:09:13;-8.80;99.90
23114;DHT22;11726;50.122;8.832;2022-12-18T08:11:40;-8.80;99.90
23114;DHT22;11726;50.122;8.832;2022-12-18T08:14:06;-8.70;99.90
23114;DHT22;11726;50.122;8.832;2022-12-18T08:16:33;-8.80;99.90
23114;DHT22;11726;50.122;8.832;2022-12-18T08:19:00;-8.80;99.90
23114;DHT22;11726;50.122;8.832;2022-12-18T08:21:27;-8.80;99.90
23114;DHT22;11726;50.122;8.832;2022-12-18T08:23:57;-8.70;99.90
23114;DHT22;11726;50.122;8.832;2022-12-18T08:26:24;-8.70;99.90
23114;DHT22;11726;50.122;8.832;2022-12-18T08:28:51;-8.70;99.90
23114;DHT22;11726;50.122;8.832;2022-12-18T08:31:18;-8.60;99.90
23114;DHT22;11726;50.122;8.832;2022-12-18T08:33:45;-8.50;99.90
23114;DHT22;11726;50.122;8.832;2022-12-18T08:36:12;-8.50;99.90
23114;DHT22;11726;50.122;8.832;2022-12-18T08:38:38;-8.50;99.90
23114;DHT22;11726;50.122;8.832;2022-12-18T08:41:06;-8.30;99.90
23114;DHT22;11726;50.122;8.832;2022-12-18T08:43:33;-8.20;99.90
23114;DHT22;11726;50.122;8.832;2022-12-18T08:46:19;-8.20;99.90
23114;DHT22;11726;50.122;8.832;2022-12-18T08:48:46;-8.20;99.90
23114;DHT22;11726;50.122;8.832;2022-12-18T08:51:13;-8.10;99.90
23114;DHT22;11726;50.122;8.832;2022-12-18T08:53:41;-8.10;99.90
23114;DHT22;11726;50.122;8.832;2022-12-18T08:56:09;-8.00;99.90
23114;DHT22;11726;50.122;8.832;2022-12-18T08:58:35;-7.80;99.90
23114;DHT22;11726;50.122;8.832;2022-12-18T09:01:02;-7.70;99.90
23114;DHT22;11726;50.122;8.832;2022-12-18T09:03:29;-7.60;99.90
23114;DHT22;11726;50.122;8.832;2022-12-18T09:05:56;-7.50;99.90
23114;DHT22;11726;50.122;8.832;2022-12-18T09:08:23;-7.60;99.90
23114;DHT22;11726;50.122;8.832;2022-12-18T09:10:49;-7.60;99.90
23114;DHT22;11726;50.122;8.832;2022-12-18T09:13:16;-7.50;99.90
23114;DHT22;11726;50.122;8.832;2022-12-18T09:15:44;-7.40;99.90
23114;DHT22;11726;50.122;8.832;2022-12-18T09:18:12;-7.20;99.90
23114;DHT22;11726;50.122;8.832;2022-12-18T09:20:39;-7.20;99.90
23114;DHT22;11726;50.122;8.832;2022-12-18T09:23:06;-7.10;99.90
23114;DHT22;11726;50.122;8.832;2022-12-18T09:25:33;-7.10;99.90
23114;DHT22;11726;50.122;8.832;2022-12-18T09:28:02;-7.10;99.90
23114;DHT22;11726;50.122;8.832;2022-12-18T09:30:29;-7.00;99.90
23114;DHT22;11726;50.122;8.832;2022-12-18T09:32:55;-7.00;99.90
23114;DHT22;11726;50.122;8.832;2022-12-18T09:35:22;-6.80;99.90
23114;DHT22;11726;50.122;8.832;2022-12-18T09:37:48;-6.80;99.90
23114;DHT22;11726;50.122;8.832;2022-12-18T09:40:19;-6.70;99.90
23114;DHT22;11726;50.122;8.832;2022-12-18T09:42:47;-6.60;99.90
23114;DHT22;11726;50.122;8.832;2022-12-18T09:45:15;-6.40;99.90
23114;DHT22;11726;50.122;8.832;2022-12-18T09:47:42;-6.30;99.90
23114;DHT22;11726;50.122;8.832;2022-12-18T09:50:52;-6.20;99.90
23114;DHT22;11726;50.122;8.832;2022-12-18T09:53:10;-6.10;99.90
23114;DHT22;11726;50.122;8.832;2022-12-18T09:55:40;-6.00;99.90
23114;DHT22;11726;50.122;8.832;2022-12-18T10:00:35;-5.80;99.90
23114;DHT22;11726;50.122;8.832;2022-12-18T10:03:12;-5.70;99.90
23114;DHT22;11726;50.122;8.832;2022-12-18T10:05:45;-5.60;99.90
23114;DHT22;11726;50.122;8.832;2022-12-18T10:10:48;-5.40;99.90
23114;DHT22;11726;50.122;8.832;2022-12-18T10:13:31;-5.40;99.90
23114;DHT22;11726;50.122;8.832;2022-12-18T10:16:12;-5.30;99.90
23114;DHT22;11726;50.122;8.832;2022-12-18T10:21:30;-5.20;99.90
23114;DHT22;11726;50.122;8.832;2022-12-18T10:24:16;-5.20;99.90
23114;DHT22;11726;50.122;8.832;2022-12-18T10:26:45;-5.10;99.90
23114;DHT22;11726;50.122;8.832;2022-12-18T10:29:13;-5.10;99.90
23114;DHT22;11726;50.122;8.832;2022-12-18T10:31:41;-4.90;99.90
23114;DHT22;11726;50.122;8.832;2022-12-18T10:34:11;-4.90;99.90
23114;DHT22;11726;50.122;8.832;2022-12-18T10:36:42;-4.80;99.90
23114;DHT22;11726;50.122;8.832;2022-12-18T10:41:41;-4.70;99.90
23114;DHT22;11726;50.122;8.832;2022-12-18T10:44:16;-4.70;99.90
23114;DHT22;11726;50.122;8.832;2022-12-18T10:46:44;-4.60;99.90
23114;DHT22;11726;50.122;8.832;2022-12-18T10:49:46;-4.60;99.90
23114;DHT22;11726;50.122;8.832;2022-12-18T10:52:11;-4.50;99.90
23114;DHT22;11726;50.122;8.832;2022-12-18T10:54:45;-4.50;99.90
23114;DHT22;11726;50.122;8.832;2022-12-18T10:57:54;-4.40;99.90
23114;DHT22;11726;50.122;8.832;2022-12-18T11:00:21;-4.40;99.90
23114;DHT22;11726;50.122;8.832;2022-12-18T11:02:48;-4.30;99.90
23114;DHT22;11726;50.122;8.832;2022-12-18T11:07:54;-4.20;99.90
23114;DHT22;11726;50.122;8.832;2022-12-18T11:10:22;-4.10;99.90
23114;DHT22;11726;50.122;8.832;2022-12-18T11:12:49;-4.00;99.90
23114;DHT22;11726;50.122;8.832;2022-12-18T11:15:26;-4.00;99.90
23114;DHT22;11726;50.122;8.832;2022-12-18T11:17:53;-3.90;99.90
23114;DHT22;11726;50.122;8.832;2022-12-18T11:22:57;-3.70;99.90
23114;DHT22;11726;50.122;8.832;2022-12-18T11:25:24;-3.60;99.90
23114;DHT22;11726;50.122;8.832;2022-12-18T11:28:01;-3.70;99.90
23114;DHT22;11726;50.122;8.832;2022-12-18T11:30:30;-3.60;99.90
23114;DHT22;11726;50.122;8.832;2022-12-18T11:35:35;-3.60;99.90
23114;DHT22;11726;50.122;8.832;2022-12-18T11:40:40;-3.50;99.90
23114;DHT22;11726;50.122;8.832;2022-12-18T11:45:55;-3.20;99.90
23114;DHT22;11726;50.122;8.832;2022-12-18T11:48:24;-3.10;99.90
23114;DHT22;11726;50.122;8.832;2022-12-18T11:50:54;-3.20;99.90
23114;DHT22;11726;50.122;8.832;2022-12-18T11:53:21;-3.30;99.90
23114;DHT22;11726;50.122;8.832;2022-12-18T11:58:22;-3.30;99.90
23114;DHT22;11726;50.122;8.832;2022-12-18T12:06:45;-3.40;99.90
23114;DHT22;11726;50.122;8.832;2022-12-18T12:12:02;-3.30;99.90
23114;DHT22;11726;50.122;8.832;2022-12-18T12:27:19;-3.20;99.90
23114;DHT22;11726;50.122;8.832;2022-12-18T12:29:50;-3.10;99.90
23114;DHT22;11726;50.122;8.832;2022-12-18T12:35:06;-3.10;99.90
23114;DHT22;11726;50.122;8.832;2022-12-18T12:40:10;-3.00;99.90
23114;DHT22;11726;50.122;8.832;2022-12-18T12:43:33;-3.00;99.90
23114;DHT22;11726;50.122;8.832;2022-12-18T12:45:53;-3.00;99.90
23114;DHT22;11726;50.122;8.832;2022-12-18T12:48:33;-2.90;99.90
23114;DHT22;11726;50.122;8.832;2022-12-18T12:51:01;-2.90;99.90
23114;DHT22;11726;50.122;8.832;2022-12-18T12:53:36;-2.90;99.90
23114;DHT22;11726;50.122;8.832;2022-12-18T12:56:05;-2.90;99.90
23114;DHT22;11726;50.122;8.832;2022-12-18T13:06:50;-2.80;99.90
23114;DHT22;11726;50.122;8.832;2022-12-18T13:09:20;-2.90;99.90
23114;DHT22;11726;50.122;8.832;2022-12-18T13:11:47;-2.90;99.90
23114;DHT22;11726;50.122;8.832;2022-12-18T13:14:34;-2.80;99.90
23114;DHT22;11726;50.122;8.832;2022-12-18T13:20:04;-2.80;99.90
23114;DHT22;11726;50.122;8.832;2022-12-18T13:22:37;-2.80;99.90
23114;DHT22;11726;50.122;8.832;2022-12-18T13:25:26;-2.90;99.90
23114;DHT22;11726;50.122;8.832;2022-12-18T13:27:59;-2.80;99.90
23114;DHT22;11726;50.122;8.832;2022-12-18T13:38:32;-2.70;99.90
23114;DHT22;11726;50.122;8.832;2022-12-18T13:43:49;-2.70;99.90
23114;DHT22;11726;50.122;8.832;2022-12-18T13:46:23;-2.70;99.90
23114;DHT22;11726;50.122;8.832;2022-12-18T13:48:52;-2.70;99.90
23114;DHT22;11726;50.122;8.832;2022-12-18T13:51:20;-2.70;99.90
23114;DHT22;11726;50.122;8.832;2022-12-18T13:53:51;-2.70;99.90
23114;DHT22;11726;50.122;8.832;2022-12-18T13:56:21;-2.70;99.90
23114;DHT22;11726;50.122;8.832;2022-12-18T14:01:34;-2.70;99.90
23114;DHT22;11726;50.122;8.832;2022-12-18T14:04:17;-2.70;99.90
23114;DHT22;11726;50.122;8.832;2022-12-18T14:06:45;-2.70;99.90
23114;DHT22;11726;50.122;8.832;2022-12-18T14:09:13;-2.70;99.90
23114;DHT22;11726;50.122;8.832;2022-12-18T14:11:50;-2.70;99.90
23114;DHT22;11726;50.122;8.832;2022-12-18T14:14:17;-2.70;99.90
23114;DHT22;11726;50.122;8.832;2022-12-18T14:16:45;-2.70;99.90
23114;DHT22;11726;50.122;8.832;2022-12-18T14:19:16;-2.80;99.90
23114;DHT22;11726;50.122;8.832;2022-12-18T14:21:47;-2.80;99.90
23114;DHT22;11726;50.122;8.832;2022-12-18T14:24:18;-2.80;99.90
23114;DHT22;11726;50.122;8.832;2022-12-18T14:26:45;-2.80;99.90
23114;DHT22;11726;50.122;8.832;2022-12-18T14:29:20;-2.80;99.90
23114;DHT22;11726;50.122;8.832;2022-12-18T14:32:03;-2.80;99.90
23114;DHT22;11726;50.122;8.832;2022-12-18T14:34:30;-2.80;99.90
23114;DHT22;11726;50.122;8.832;2022-12-18T14:36:57;-2.80;99.90
23114;DHT22;11726;50.122;8.832;2022-12-18T14:39:23;-2.80;99.90
23114;DHT22;11726;50.122;8.832;2022-12-18T14:41:52;-2.80;99.90
23114;DHT22;11726;50.122;8.832;2022-12-18T14:44:19;-2.80;99.90
23114;DHT22;11726;50.122;8.832;2022-12-18T14:46:47;-2.90;99.90
23114;DHT22;11726;50.122;8.832;2022-12-18T14:49:26;-2.90;99.90
23114;DHT22;11726;50.122;8.832;2022-12-18T14:51:56;-2.90;99.90
23114;DHT22;11726;50.122;8.832;2022-12-18T14:54:26;-2.90;99.90
23114;DHT22;11726;50.122;8.832;2022-12-18T14:57:03;-2.90;99.90
23114;DHT22;11726;50.122;8.832;2022-12-18T14:59:30;-3.00;99.90
23114;DHT22;11726;50.122;8.832;2022-12-18T15:09:41;-3.10;99.90
23114;DHT22;11726;50.122;8.832;2022-12-18T15:12:19;-3.10;99.90
23114;DHT22;11726;50.122;8.832;2022-12-18T15:14:48;-3.10;99.90
23114;DHT22;11726;50.122;8.832;2022-12-18T15:17:17;-3.10;99.90
23114;DHT22;11726;50.122;8.832;2022-12-18T15:19:45;-3.10;99.90
23114;DHT22;11726;50.122;8.832;2022-12-18T15:22:22;-3.10;99.90
23114;DHT22;11726;50.122;8.832;2022-12-18T15:24:51;-3.10;99.90
23114;DHT22;11726;50.122;8.832;2022-12-18T15:27:31;-3.10;99.90
23114;DHT22;11726;50.122;8.832;2022-12-18T15:32:37;-3.10;99.90
23114;DHT22;11726;50.122;8.832;2022-12-18T15:35:23;-3.10;99.90
23114;DHT22;11726;50.122;8.832;2022-12-18T15:37:51;-3.10;99.90
23114;DHT22;11726;50.122;8.832;2022-12-18T15:40:19;-3.10;99.90
23114;DHT22;11726;50.122;8.832;2022-12-18T15:42:46;-3.10;99.90
23114;DHT22;11726;50.122;8.832;2022-12-18T15:45:31;-3.20;99.90
23114;DHT22;11726;50.122;8.832;2022-12-18T15:47:58;-3.20;99.90
23114;DHT22;11726;50.122;8.832;2022-12-18T15:50:25;-3.20;99.90
23114;DHT22;11726;50.122;8.832;2022-12-18T15:52:53;-3.10;99.90
23114;DHT22;11726;50.122;8.832;2022-12-18T15:55:22;-3.10;99.90
23114;DHT22;11726;50.122;8.832;2022-12-18T15:58:08;-3.20;99.90
23114;DHT22;11726;50.122;8.832;2022-12-18T16:00:35;-3.20;99.90
23114;DHT22;11726;50.122;8.832;2022-12-18T16:03:03;-3.20;99.90
23114;DHT22;11726;50.122;8.832;2022-12-18T16:05:30;-3.20;99.90
23114;DHT22;11726;50.122;8.832;2022-12-18T16:07:57;-3.20;99.90
23114;DHT22;11726;50.122;8.832;2022-12-18T16:10:25;-3.20;99.90
23114;DHT22;11726;50.122;8.832;2022-12-18T16:12:52;-3.30;99.90
23114;DHT22;11726;50.122;8.832;2022-12-18T16:15:18;-3.30;99.90
23114;DHT22;11726;50.122;8.832;2022-12-18T16:17:50;-3.40;99.90
23114;DHT22;11726;50.122;8.832;2022-12-18T16:20:19;-3.30;99.90
23114;DHT22;11726;50.122;8.832;2022-12-18T16:22:47;-3.30;99.90
23114;DHT22;11726;50.122;8.832;2022-12-18T16:25:23;-3.40;99.90
23114;DHT22;11726;50.122;8.832;2022-12-18T16:27:51;-3.30;99.90
23114;DHT22;11726;50.122;8.832;2022-12-18T16:30:20;-3.40;99.90
23114;DHT22;11726;50.122;8.832;2022-12-18T16:32:47;-3.40;99.90
23114;DHT22;11726;50.122;8.832;2022-12-18T16:35:14;-3.40;99.90
23114;DHT22;11726;50.122;8.832;2022-12-18T16:37:41;-3.40;99.90
23114;DHT22;11726;50.122;8.832;2022-12-18T16:40:09;-3.40;99.90
23114;DHT22;11726;50.122;8.832;2022-12-18T16:42:36;-3.40;99.90
23114;DHT22;11726;50.122;8.832;2022-12-18T16:45:03;-3.50;99.90
23114;DHT22;11726;50.122;8.832;2022-12-18T16:47:30;-3.40;99.90
23114;DHT22;11726;50.122;8.832;2022-12-18T16:49:57;-3.40;99.90
23114;DHT22;11726;50.122;8.832;2022-12-18T16:52:24;-3.40;99.90
23114;DHT22;11726;50.122;8.832;2022-12-18T16:54:50;-3.40;99.90
23114;DHT22;11726;50.122;8.832;2022-12-18T16:57:17;-3.40;99.90
23114;DHT22;11726;50.122;8.832;2022-12-18T16:59:44;-3.40;99.90
23114;DHT22;11726;50.122;8.832;2022-12-18T17:02:12;-3.50;99.90
23114;DHT22;11726;50.122;8.832;2022-12-18T17:04:41;-3.50;99.90
23114;DHT22;11726;50.122;8.832;2022-12-18T17:07:08;-3.50;99.90
23114;DHT22;11726;50.122;8.832;2022-12-18T17:09:35;-3.50;99.90
23114;DHT22;11726;50.122;8.832;2022-12-18T17:12:01;-3.50;99.90
23114;DHT22;11726;50.122;8.832;2022-12-18T17:14:30;-3.50;99.90
23114;DHT22;11726;50.122;8.832;2022-12-18T17:16:57;-3.50;99.90
23114;DHT22;11726;50.122;8.832;2022-12-18T17:19:45;-3.50;99.90
23114;DHT22;11726;50.122;8.832;2022-12-18T17:22:11;-3.50;99.90
23114;DHT22;11726;50.122;8.832;2022-12-18T17:24:38;-3.50;99.90
23114;DHT22;11726;50.122;8.832;2022-12-18T17:27:05;-3.50;99.90
23114;DHT22;11726;50.122;8.832;2022-12-18T17:29:31;-3.50;99.90
23114;DHT22;11726;50.122;8.832;2022-12-18T17:31:58;-3.70;99.90